createdAt,value
2023-05-16T00:00:14.246Z,13.58
2023-05-16T00:02:57.546Z,13.57
2023-05-16T00:05:42.243Z,13.46
2023-05-16T00:08:25.303Z,13.48
2023-05-16T00:11:08.431Z,13.48
2023-05-16T00:13:51.684Z,13.49
2023-05-16T00:16:37.260Z,13.41
2023-05-16T00:19:20.616Z,13.39
2023-05-16T00:22:05.464Z,13.42
2023-05-16T00:24:48.852Z,13.49
2023-05-16T00:27:31.928Z,13.50
2023-05-16T00:30:15.382Z,13.38
2023-05-16T00:32:58.856Z,13.33
2023-05-16T00:35:41.982Z,13.27
2023-05-16T00:38:29.429Z,13.30
2023-05-16T00:41:12.569Z,13.37
2023-05-16T00:43:55.624Z,13.35
2023-05-16T00:46:38.978Z,13.39
2023-05-16T00:49:22.525Z,13.37
2023-05-16T00:52:06.468Z,13.47
2023-05-16T00:54:51.875Z,13.43
2023-05-16T00:57:35.202Z,13.47
2023-05-16T01:00:20.141Z,13.57
2023-05-16T01:03:03.821Z,13.50
2023-05-16T01:05:47.965Z,13.54
2023-05-16T01:08:31.075Z,13.59
2023-05-16T01:11:28.284Z,13.51
2023-05-16T01:14:21.836Z,13.45
2023-05-16T01:17:11.327Z,13.36
2023-05-16T01:20:06.501Z,13.37
2023-05-16T01:23:05.425Z,13.23
2023-05-16T01:25:59.222Z,13.21
2023-05-16T01:28:45.481Z,13.18
2023-05-16T01:31:28.968Z,13.14
2023-05-16T01:34:12.723Z,13.17
2023-05-16T01:37:04.494Z,13.21
2023-05-16T01:39:57.578Z,13.24
2023-05-16T01:42:46.519Z,13.22
2023-05-16T01:45:34.733Z,13.15
2023-05-16T01:48:21.693Z,13.05
2023-05-16T01:51:05.840Z,13.13
2023-05-16T01:53:51.637Z,13.07
2023-05-16T01:56:35.803Z,13.04
2023-05-16T01:59:20.673Z,13.09
2023-05-16T02:02:05.647Z,13.06
2023-05-16T02:04:48.791Z,13.09
2023-05-16T02:07:32.136Z,13.00
2023-05-16T02:10:15.397Z,13.15
2023-05-16T02:12:59.161Z,13.15
2023-05-16T02:15:42.251Z,13.12
2023-05-16T02:18:28.453Z,13.05
2023-05-16T02:21:11.649Z,13.01
2023-05-16T02:23:54.878Z,13.07
2023-05-16T02:26:38.116Z,13.11
2023-05-16T02:29:24.079Z,13.15
2023-05-16T02:32:07.908Z,13.26
2023-05-16T02:34:52.501Z,13.24
2023-05-16T02:37:35.988Z,13.31
2023-05-16T02:40:19.201Z,13.37
2023-05-16T02:43:02.306Z,13.38
2023-05-16T02:45:46.153Z,13.25
2023-05-16T02:48:29.526Z,13.32
2023-05-16T02:51:14.451Z,13.36
2023-05-16T02:53:59.820Z,13.28
2023-05-16T02:56:43.074Z,13.30
2023-05-16T02:59:26.334Z,13.30
2023-05-16T03:02:09.982Z,13.38
2023-05-16T03:04:53.845Z,13.40
2023-05-16T03:07:38.515Z,13.33
2023-05-16T03:10:21.824Z,13.32
2023-05-16T03:13:14.808Z,13.38
2023-05-16T03:16:00.728Z,13.31
2023-05-16T03:18:44.330Z,13.47
2023-05-16T03:21:27.499Z,13.57
2023-05-16T03:24:14.807Z,13.62
2023-05-16T03:27:00.088Z,13.54
2023-05-16T03:29:43.201Z,13.57
2023-05-16T03:32:26.371Z,13.67
2023-05-16T03:35:14.710Z,13.71
2023-05-16T03:37:58.212Z,13.67
2023-05-16T03:40:43.193Z,13.65
2023-05-16T03:43:27.291Z,13.72
2023-05-16T03:46:10.709Z,13.66
2023-05-16T03:48:54.015Z,13.54
2023-05-16T03:51:37.174Z,13.62
2023-05-16T03:54:20.380Z,13.56
2023-05-16T03:57:05.398Z,13.53
2023-05-16T03:59:48.731Z,13.57
2023-05-16T04:02:32.223Z,13.58
2023-05-16T04:05:15.712Z,13.67
2023-05-16T04:08:01.301Z,13.70
2023-05-16T04:10:44.491Z,13.73
2023-05-16T04:13:29.313Z,13.76
2023-05-16T04:16:13.154Z,13.80
2023-05-16T04:18:57.771Z,13.84
2023-05-16T04:21:41.069Z,13.88
2023-05-16T04:24:26.730Z,13.84
2023-05-16T04:27:10.341Z,13.82
2023-05-16T04:29:55.069Z,13.95
2023-05-16T04:32:38.483Z,14.03
2023-05-16T04:35:22.517Z,14.04
2023-05-16T04:38:06.881Z,14.09
2023-05-16T04:40:53.310Z,14.06
2023-05-16T04:43:38.126Z,14.06
2023-05-16T04:46:23.026Z,14.22
2023-05-16T04:49:06.346Z,14.14
2023-05-16T04:51:51.471Z,14.16
2023-05-16T04:54:37.293Z,14.13
2023-05-16T04:57:20.467Z,14.16
2023-05-16T05:00:05.862Z,14.15
2023-05-16T05:02:52.574Z,14.15
2023-05-16T05:05:35.789Z,14.19
2023-05-16T05:08:19.498Z,14.19
2023-05-16T05:11:03.744Z,14.16
2023-05-16T05:13:47.166Z,14.21
2023-05-16T05:16:30.628Z,14.29
2023-05-16T05:19:15.412Z,14.31
2023-05-16T05:22:01.922Z,14.33
2023-05-16T05:24:45.014Z,14.34
2023-05-16T05:27:28.769Z,14.42
2023-05-16T05:30:12.572Z,14.48
2023-05-16T05:32:56.666Z,14.51
2023-05-16T05:35:41.443Z,14.46
2023-05-16T05:38:24.697Z,14.47
2023-05-16T05:41:08.032Z,14.54
2023-05-16T05:43:51.432Z,14.44
2023-05-16T05:46:41.399Z,14.51
2023-05-16T05:49:24.805Z,14.56
2023-05-16T05:52:09.664Z,14.60
2023-05-16T05:54:52.993Z,14.50
2023-05-16T05:57:36.521Z,14.47
2023-05-16T06:00:20.013Z,14.47
2023-05-16T06:03:03.273Z,14.40
2023-05-16T06:05:46.608Z,14.44
2023-05-16T06:08:31.713Z,14.56
2023-05-16T06:11:14.898Z,14.61
2023-05-16T06:13:58.004Z,14.67
2023-05-16T06:16:41.480Z,14.56
2023-05-16T06:19:25.120Z,14.66
2023-05-16T06:22:08.786Z,14.79
2023-05-16T06:24:53.608Z,14.94
2023-05-16T06:27:36.868Z,15.06
2023-05-16T06:30:20.320Z,15.15
2023-05-16T06:33:03.569Z,15.15
2023-05-16T06:35:48.129Z,15.11
2023-05-16T06:38:31.707Z,15.18
2023-05-16T06:41:16.301Z,15.16
2023-05-16T06:43:59.620Z,15.15
2023-05-16T06:46:43.078Z,15.19
2023-05-16T06:49:27.018Z,15.23
2023-05-16T06:52:10.174Z,15.19
2023-05-16T06:54:54.148Z,15.12
2023-05-16T06:57:38.629Z,15.12
2023-05-16T07:00:22.751Z,15.16
2023-05-16T07:03:06.442Z,15.16
2023-05-16T07:05:51.729Z,15.24
2023-05-16T07:08:36.210Z,15.41
2023-05-16T07:11:19.444Z,15.57
2023-05-16T07:14:04.209Z,15.82
2023-05-16T07:16:47.655Z,15.91
2023-05-16T07:19:32.241Z,15.92
2023-05-16T07:22:15.518Z,16.12
2023-05-16T07:25:01.506Z,16.34
2023-05-16T07:27:45.572Z,16.38
2023-05-16T07:30:30.679Z,16.51
2023-05-16T07:33:14.083Z,16.51
2023-05-16T07:36:08.015Z,16.71
2023-05-16T07:38:59.172Z,16.74
2023-05-16T07:41:42.652Z,17.05
2023-05-16T07:44:26.434Z,17.27
2023-05-16T07:47:11.498Z,17.40
2023-05-16T07:49:54.959Z,17.54
2023-05-16T07:52:38.142Z,17.60
2023-05-16T07:55:22.390Z,17.60
2023-05-16T07:58:06.784Z,17.73
2023-05-16T08:00:50.871Z,17.83
2023-05-16T08:03:37.940Z,18.02
2023-05-16T08:06:21.578Z,18.08
2023-05-16T08:09:05.018Z,17.77
2023-05-16T08:11:48.696Z,17.99
2023-05-16T08:14:33.416Z,18.23
2023-05-16T08:17:16.918Z,18.44
2023-05-16T08:20:03.211Z,18.40
2023-05-16T08:22:46.478Z,18.60
2023-05-16T08:25:29.810Z,18.58
2023-05-16T08:28:13.337Z,18.90
2023-05-16T08:30:57.307Z,19.24
2023-05-16T08:33:40.789Z,19.52
2023-05-16T08:36:26.273Z,19.39
2023-05-16T08:39:11.622Z,19.21
2023-05-16T08:41:55.153Z,19.66
2023-05-16T08:44:38.507Z,19.74
2023-05-16T08:47:26.271Z,20.44
2023-05-16T08:50:12.286Z,21.01
2023-05-16T08:52:57.301Z,21.72
2023-05-16T08:55:42.682Z,21.18
2023-05-16T08:58:27.016Z,21.88
2023-05-16T09:01:10.656Z,21.67
2023-05-16T09:03:54.714Z,21.93
2023-05-16T09:06:38.462Z,21.48
2023-05-16T09:09:23.141Z,21.24
2023-05-16T09:12:06.773Z,21.26
2023-05-16T09:14:50.174Z,21.02
2023-05-16T09:17:39.777Z,21.21
2023-05-16T09:20:26.559Z,21.26
2023-05-16T09:23:11.772Z,20.83
2023-05-16T09:25:56.437Z,20.92
2023-05-16T09:28:40.267Z,21.02
2023-05-16T09:31:27.122Z,21.01
2023-05-16T09:34:12.974Z,20.92
2023-05-16T09:36:57.160Z,20.79
2023-05-16T09:39:42.741Z,20.82
2023-05-16T09:42:27.920Z,20.75
2023-05-16T09:45:14.346Z,20.77
2023-05-16T09:48:03.770Z,20.62
2023-05-16T09:50:54.399Z,20.75
2023-05-16T09:53:39.896Z,20.91
2023-05-16T09:56:24.649Z,21.00
2023-05-16T09:59:13.390Z,21.28
2023-05-16T10:02:00.130Z,21.52
2023-05-16T10:04:53.265Z,21.91
2023-05-16T10:07:37.486Z,21.80
2023-05-16T10:10:21.560Z,21.39
2023-05-16T10:13:06.800Z,21.02
2023-05-16T10:15:52.451Z,20.86
2023-05-16T10:18:37.546Z,20.48
2023-05-16T10:21:23.573Z,20.15
2023-05-16T10:24:12.613Z,19.84
2023-05-16T10:26:55.866Z,19.70
2023-05-16T10:29:52.944Z,19.33
2023-05-16T10:32:41.958Z,19.04
2023-05-16T10:35:27.861Z,18.93
2023-05-16T10:38:15.138Z,18.95
2023-05-16T10:40:59.258Z,19.01
2023-05-16T10:43:46.768Z,19.15
2023-05-16T10:46:33.531Z,19.48
2023-05-16T10:49:26.447Z,19.82
2023-05-16T10:52:11.738Z,20.35
2023-05-16T10:54:55.984Z,20.43
2023-05-16T10:57:39.719Z,20.37
2023-05-16T11:00:24.262Z,20.54
2023-05-16T11:03:11.601Z,20.67
2023-05-16T11:06:02.888Z,20.67
2023-05-16T11:09:05.835Z,20.72
2023-05-16T11:11:56.594Z,20.95
2023-05-16T11:14:42.697Z,21.19
2023-05-16T11:17:29.412Z,21.19
2023-05-16T11:20:27.047Z,21.29
2023-05-16T11:23:25.365Z,21.60
2023-05-16T11:26:08.787Z,21.95
2023-05-16T11:28:54.214Z,22.10
2023-05-16T11:31:37.834Z,22.27
2023-05-16T11:34:21.369Z,22.59
2023-05-16T11:37:04.884Z,22.97
2023-05-16T11:39:50.050Z,23.31
2023-05-16T11:42:36.311Z,23.64
2023-05-16T11:45:21.632Z,23.40
2023-05-16T11:48:06.131Z,23.26
2023-05-16T11:50:49.817Z,23.63
2023-05-16T11:53:34.082Z,23.95
2023-05-16T11:56:18.752Z,23.63
2023-05-16T11:59:02.419Z,23.62
2023-05-16T12:01:48.407Z,23.53
2023-05-16T12:04:32.029Z,23.99
2023-05-16T12:07:15.462Z,24.11
2023-05-16T12:09:59.094Z,23.56
2023-05-16T12:12:47.466Z,23.83
2023-05-16T12:15:31.589Z,23.93
2023-05-16T12:18:18.011Z,24.46
2023-05-16T12:21:01.367Z,24.87
2023-05-16T12:23:44.834Z,24.71
2023-05-16T12:26:31.123Z,24.84
2023-05-16T12:29:15.843Z,24.84
2023-05-16T12:32:01.726Z,24.35
2023-05-16T12:34:51.613Z,23.81
2023-05-16T12:37:34.995Z,23.45
2023-05-16T12:40:18.876Z,23.27
2023-05-16T12:43:02.907Z,23.03
2023-05-16T12:45:53.339Z,23.02
2023-05-16T12:48:36.659Z,22.91
2023-05-16T12:51:20.614Z,22.80
2023-05-16T12:54:10.697Z,22.63
2023-05-16T12:56:53.980Z,22.25
2023-05-16T12:59:37.534Z,21.86
2023-05-16T13:02:22.879Z,21.60
2023-05-16T13:05:07.933Z,21.32
2023-05-16T13:07:51.748Z,21.00
2023-05-16T13:10:36.213Z,20.88
2023-05-16T13:13:32.525Z,20.72
2023-05-16T13:16:19.154Z,20.76
2023-05-16T13:19:05.568Z,20.62
2023-05-16T13:21:48.772Z,20.59
2023-05-16T13:24:34.304Z,20.55
2023-05-16T13:27:19.010Z,20.43
2023-05-16T13:30:04.371Z,20.27
2023-05-16T13:32:48.690Z,20.30
2023-05-16T13:35:33.677Z,20.34
2023-05-16T13:38:16.964Z,20.22
2023-05-16T13:41:00.200Z,20.09
2023-05-16T13:43:43.503Z,19.96
2023-05-16T13:46:27.081Z,19.78
2023-05-16T13:49:10.598Z,19.71
2023-05-16T13:51:55.229Z,19.46
2023-05-16T13:54:39.826Z,19.41
2023-05-16T13:57:26.687Z,19.28
2023-05-16T14:02:58.917Z,19.31
2023-05-16T14:05:42.988Z,19.30
2023-05-16T14:08:27.793Z,19.29
2023-05-16T14:11:11.170Z,19.36
2023-05-16T14:13:54.794Z,19.26
2023-05-16T14:16:39.190Z,19.14
2023-05-16T14:19:22.814Z,19.16
2023-05-16T14:22:06.610Z,19.12
2023-05-16T14:24:51.375Z,19.12
2023-05-16T14:27:34.694Z,19.17
2023-05-16T14:30:18.442Z,19.25
2023-05-16T14:33:02.348Z,19.26
2023-05-16T14:35:45.569Z,19.21
2023-05-16T14:38:28.847Z,19.11
2023-05-16T14:41:13.569Z,19.01
2023-05-16T14:43:57.714Z,19.00
2023-05-16T14:46:40.949Z,18.92
2023-05-16T14:49:24.163Z,18.90
2023-05-16T14:52:08.727Z,18.95
2023-05-16T14:54:52.077Z,18.85
2023-05-16T14:57:37.108Z,18.80
2023-05-16T15:00:25.540Z,18.75
2023-05-16T15:03:10.164Z,18.86
2023-05-16T15:05:54.889Z,19.02
2023-05-16T15:08:38.990Z,19.34
2023-05-16T15:11:24.992Z,19.58
2023-05-16T15:14:11.046Z,19.78
2023-05-16T15:16:54.931Z,19.91
2023-05-16T15:19:40.538Z,19.92
2023-05-16T15:22:24.739Z,19.83
2023-05-16T15:25:09.234Z,19.66
2023-05-16T15:27:52.586Z,19.52
2023-05-16T15:30:37.569Z,19.42
2023-05-16T15:33:20.877Z,19.34
2023-05-16T15:36:04.507Z,19.20
2023-05-16T15:38:47.855Z,19.17
2023-05-16T15:42:00.621Z,19.17
2023-05-16T15:44:37.657Z,19.12
2023-05-16T15:47:22.722Z,19.11
2023-05-16T15:50:06.714Z,19.13
2023-05-16T15:52:50.050Z,19.22
2023-05-16T15:55:35.679Z,19.23
2023-05-16T15:58:20.631Z,19.25
2023-05-16T16:01:05.661Z,19.22
2023-05-16T16:03:50.506Z,19.28
2023-05-16T16:06:34.109Z,19.30
2023-05-16T16:09:17.756Z,19.20
2023-05-16T16:12:01.949Z,19.19
2023-05-16T16:14:45.428Z,19.20
2023-05-16T16:17:29.153Z,19.26
2023-05-16T16:20:14.087Z,19.17
2023-05-16T16:22:57.616Z,18.80
2023-05-16T16:25:44.061Z,18.70
2023-05-16T16:28:27.635Z,18.56
2023-05-16T16:31:11.500Z,18.44
2023-05-16T16:33:58.056Z,18.36
2023-05-16T16:36:43.546Z,18.27
2023-05-16T16:39:27.079Z,18.23
2023-05-16T16:42:10.619Z,18.13
2023-05-16T16:44:54.416Z,18.06
2023-05-16T16:47:40.785Z,17.89
2023-05-16T16:50:24.574Z,17.79
2023-05-16T16:53:10.004Z,17.72
2023-05-16T16:55:53.291Z,17.75
2023-05-16T16:58:36.940Z,17.62
2023-05-16T17:01:20.475Z,17.52
2023-05-16T17:04:03.987Z,17.38
2023-05-16T17:06:48.625Z,17.25
2023-05-16T17:09:33.703Z,17.10
2023-05-16T17:12:25.129Z,17.04
2023-05-16T17:15:14.417Z,16.95
2023-05-16T17:17:58.059Z,16.93
2023-05-16T17:20:41.386Z,16.91
2023-05-16T17:23:24.961Z,16.80
2023-05-16T17:26:10.119Z,16.75
2023-05-16T17:28:53.661Z,16.65
2023-05-16T17:31:37.701Z,16.57
2023-05-16T17:34:20.960Z,16.41
2023-05-16T17:37:06.322Z,16.36
2023-05-16T17:39:50.321Z,16.25
2023-05-16T17:42:35.196Z,16.11
2023-05-16T17:45:19.619Z,15.93
2023-05-16T17:48:03.286Z,16.01
2023-05-16T17:50:46.636Z,15.98
2023-05-16T17:53:33.387Z,15.98
2023-05-16T17:56:16.585Z,15.94
2023-05-16T17:59:01.417Z,15.97
2023-05-16T18:01:44.713Z,15.95
2023-05-16T18:04:30.193Z,15.92
2023-05-16T18:07:13.582Z,15.95
2023-05-16T18:09:56.816Z,15.98
2023-05-16T18:12:41.679Z,16.02
2023-05-16T18:15:27.763Z,16.15
2023-05-16T18:18:12.396Z,16.15
2023-05-16T18:20:55.593Z,16.11
2023-05-16T18:23:39.127Z,16.02
2023-05-16T18:26:22.904Z,16.06
2023-05-16T18:29:06.230Z,15.99
2023-05-16T18:31:50.940Z,16.09
2023-05-16T18:34:36.939Z,16.03
2023-05-16T18:37:20.275Z,16.14
2023-05-16T18:40:03.637Z,16.09
2023-05-16T18:42:46.912Z,15.91
2023-05-16T18:45:30.345Z,16.01
2023-05-16T18:48:15.923Z,15.94
2023-05-16T18:51:00.846Z,15.95
2023-05-16T18:53:44.118Z,15.89
2023-05-16T18:56:28.305Z,15.97
2023-05-16T18:59:11.585Z,15.93
2023-05-16T19:01:54.798Z,15.94
2023-05-16T19:04:39.514Z,15.85
2023-05-16T19:07:23.169Z,15.86
2023-05-16T19:10:14.737Z,16.01
2023-05-16T19:13:01.719Z,15.95
2023-05-16T19:15:45.469Z,15.94
2023-05-16T19:18:29.261Z,15.94
2023-05-16T19:21:14.357Z,15.95
2023-05-16T19:23:57.658Z,15.93
2023-05-16T19:26:43.860Z,15.90
2023-05-16T19:29:27.133Z,15.87
2023-05-16T19:32:11.254Z,15.84
2023-05-16T19:34:54.622Z,15.84
2023-05-16T19:37:39.636Z,15.68
2023-05-16T19:40:23.400Z,15.60
2023-05-16T19:43:09.411Z,15.67
2023-05-16T19:45:54.458Z,15.65
2023-05-16T19:48:38.751Z,15.70
2023-05-16T19:51:37.167Z,15.74
2023-05-16T19:54:26.012Z,15.80
2023-05-16T19:57:09.884Z,15.78
2023-05-16T19:59:53.468Z,15.79
2023-05-16T20:02:38.728Z,15.75
2023-05-16T20:05:23.465Z,15.83
2023-05-16T20:08:07.090Z,15.76
2023-05-16T20:10:52.037Z,15.74
2023-05-16T20:13:35.330Z,15.84
2023-05-16T20:16:21.767Z,15.88
2023-05-16T20:19:08.506Z,15.85
2023-05-16T20:21:52.136Z,15.88
2023-05-16T20:24:40.285Z,15.94
2023-05-16T20:27:25.246Z,15.84
2023-05-16T20:30:10.219Z,15.80
2023-05-16T20:32:54.692Z,15.91
2023-05-16T20:35:39.356Z,15.82
2023-05-16T20:38:25.057Z,15.77
2023-05-16T20:41:08.474Z,15.76
2023-05-16T20:43:53.234Z,15.72
2023-05-16T20:46:37.008Z,15.75
2023-05-16T20:49:20.207Z,15.56
2023-05-16T20:52:04.229Z,15.61
2023-05-16T20:54:47.754Z,15.62
2023-05-16T20:57:31.075Z,15.57
2023-05-16T21:00:16.878Z,15.55
2023-05-16T21:03:00.216Z,15.63
2023-05-16T21:05:43.536Z,15.55
2023-05-16T21:08:26.995Z,15.44
2023-05-16T21:11:10.237Z,15.38
2023-05-16T21:13:53.465Z,15.27
2023-05-16T21:16:37.957Z,15.23
2023-05-16T21:19:21.156Z,15.18
2023-05-16T21:22:04.478Z,15.25
2023-05-16T21:24:47.583Z,15.30
2023-05-16T21:27:31.122Z,15.33
2023-05-16T21:30:15.451Z,15.25
2023-05-16T21:33:00.350Z,15.23
2023-05-16T21:35:43.569Z,15.22
2023-05-16T21:38:26.654Z,15.14
2023-05-16T21:41:09.834Z,15.19
2023-05-16T21:43:53.370Z,15.18
2023-05-16T21:46:36.649Z,15.13
2023-05-16T21:49:21.252Z,15.21
2023-05-16T21:52:06.821Z,15.14
2023-05-16T21:54:52.074Z,15.12
2023-05-16T21:57:35.562Z,15.22
2023-05-16T22:00:19.438Z,15.24
2023-05-16T22:05:59.934Z,15.26
2023-05-16T22:08:43.171Z,15.25
2023-05-16T22:11:26.474Z,15.21
2023-05-16T22:14:09.618Z,15.18
2023-05-16T22:16:53.050Z,15.20
2023-05-16T22:19:36.398Z,15.14
2023-05-16T22:22:20.948Z,15.10
2023-05-16T22:25:05.167Z,15.05
2023-05-16T22:27:48.393Z,15.05
2023-05-16T22:30:31.552Z,15.03
2023-05-16T22:33:14.810Z,15.03
2023-05-16T22:35:59.922Z,14.85
2023-05-16T22:38:44.754Z,14.71
2023-05-16T22:41:29.151Z,14.83
2023-05-16T22:44:12.394Z,14.83
2023-05-16T22:46:55.616Z,14.77
2023-05-16T22:49:39.020Z,14.82
2023-05-16T22:52:22.984Z,14.84
2023-05-16T22:55:08.482Z,14.91
2023-05-16T22:57:52.882Z,14.84
2023-05-16T23:00:37.837Z,14.81
2023-05-16T23:03:21.593Z,14.73
2023-05-16T23:06:05.378Z,14.75
2023-05-16T23:08:48.650Z,14.86
2023-05-16T23:11:33.563Z,14.94
2023-05-16T23:14:17.290Z,14.86
2023-05-16T23:17:00.611Z,14.86
2023-05-16T23:19:43.928Z,14.93
2023-05-16T23:22:27.203Z,14.80
2023-05-16T23:25:11.360Z,14.82
2023-05-16T23:27:57.956Z,14.81
2023-05-16T23:30:41.222Z,14.79
2023-05-16T23:33:24.486Z,14.79
2023-05-16T23:36:08.715Z,14.66
2023-05-16T23:38:52.037Z,14.65
2023-05-16T23:41:35.533Z,14.61
2023-05-16T23:44:20.443Z,14.62
2023-05-16T23:47:03.678Z,14.63
2023-05-16T23:49:47.227Z,14.49
2023-05-16T23:52:30.753Z,14.44
2023-05-16T23:55:14.061Z,14.30
2023-05-16T23:57:57.287Z,14.21
